sensor_id;sensor_type;location;lat;lon;timestamp;P1;durP1;ratioP1;P2;durP2;ratioP2
58468;SDS011;44257;44.804;10.220;2022-12-10T00:01:11;11.02;;;6.10;;
58468;SDS011;44257;44.804;10.220;2022-12-10T00:03:39;14.02;;;6.63;;
58468;SDS011;44257;44.804;10.220;2022-12-10T00:06:07;14.05;;;6.15;;
58468;SDS011;44257;44.804;10.220;2022-12-10T00:08:36;17.00;;;7.30;;
58468;SDS011;44257;44.804;10.220;2022-12-10T00:11:02;13.13;;;6.82;;
58468;SDS011;44257;44.804;10.220;2022-12-10T00:13:30;13.52;;;4.78;;
58468;SDS011;44257;44.804;10.220;2022-12-10T00:15:58;11.88;;;5.15;;
58468;SDS011;44257;44.804;10.220;2022-12-10T00:18:25;14.52;;;6.57;;
58468;SDS011;44257;44.804;10.220;2022-12-10T00:20:51;12.85;;;6.05;;
58468;SDS011;44257;44.804;10.220;2022-12-10T00:23:18;14.55;;;6.60;;
58468;SDS011;44257;44.804;10.220;2022-12-10T00:25:44;14.18;;;6.40;;
58468;SDS011;44257;44.804;10.220;2022-12-10T00:28:09;13.45;;;6.32;;
58468;SDS011;44257;44.804;10.220;2022-12-10T00:30:35;16.63;;;4.93;;
58468;SDS011;44257;44.804;10.220;2022-12-10T00:33:01;12.93;;;5.40;;
58468;SDS011;44257;44.804;10.220;2022-12-10T00:35:27;12.50;;;5.93;;
58468;SDS011;44257;44.804;10.220;2022-12-10T00:37:53;10.23;;;5.50;;
58468;SDS011;44257;44.804;10.220;2022-12-10T00:40:20;9.55;;;4.63;;
58468;SDS011;44257;44.804;10.220;2022-12-10T00:42:46;11.68;;;6.22;;
58468;SDS011;44257;44.804;10.220;2022-12-10T00:45:12;10.70;;;5.88;;
58468;SDS011;44257;44.804;10.220;2022-12-10T00:47:38;12.43;;;6.25;;
58468;SDS011;44257;44.804;10.220;2022-12-10T00:50:04;10.70;;;5.07;;
58468;SDS011;44257;44.804;10.220;2022-12-10T00:52:30;11.07;;;5.10;;
58468;SDS011;44257;44.804;10.220;2022-12-10T00:54:56;14.48;;;5.90;;
58468;SDS011;44257;44.804;10.220;2022-12-10T00:57:22;9.57;;;5.05;;
58468;SDS011;44257;44.804;10.220;2022-12-10T00:59:48;14.70;;;5.63;;
58468;SDS011;44257;44.804;10.220;2022-12-10T01:02:14;14.00;;;5.95;;
58468;SDS011;44257;44.804;10.220;2022-12-10T01:04:40;8.38;;;4.60;;
58468;SDS011;44257;44.804;10.220;2022-12-10T01:07:07;14.10;;;5.65;;
58468;SDS011;44257;44.804;10.220;2022-12-10T01:09:33;14.93;;;6.22;;
58468;SDS011;44257;44.804;10.220;2022-12-10T01:12:00;8.23;;;5.28;;
58468;SDS011;44257;44.804;10.220;2022-12-10T01:14:28;13.75;;;4.15;;
58468;SDS011;44257;44.804;10.220;2022-12-10T01:16:57;8.30;;;4.88;;
58468;SDS011;44257;44.804;10.220;2022-12-10T01:19:25;12.43;;;5.95;;
58468;SDS011;44257;44.804;10.220;2022-12-10T01:21:51;12.05;;;5.63;;
58468;SDS011;44257;44.804;10.220;2022-12-10T01:24:19;14.15;;;4.60;;
58468;SDS011;44257;44.804;10.220;2022-12-10T01:26:45;12.90;;;5.72;;
58468;SDS011;44257;44.804;10.220;2022-12-10T01:29:11;7.28;;;4.25;;
58468;SDS011;44257;44.804;10.220;2022-12-10T01:31:39;12.98;;;5.50;;
58468;SDS011;44257;44.804;10.220;2022-12-10T01:34:06;9.88;;;5.20;;
58468;SDS011;44257;44.804;10.220;2022-12-10T01:36:36;13.75;;;4.68;;
58468;SDS011;44257;44.804;10.220;2022-12-10T01:39:05;10.27;;;4.70;;
58468;SDS011;44257;44.804;10.220;2022-12-10T01:41:36;8.25;;;5.40;;
58468;SDS011;44257;44.804;10.220;2022-12-10T01:46:34;14.65;;;6.13;;
58468;SDS011;44257;44.804;10.220;2022-12-10T01:49:02;8.43;;;5.43;;
58468;SDS011;44257;44.804;10.220;2022-12-10T01:51:31;13.32;;;5.93;;
58468;SDS011;44257;44.804;10.220;2022-12-10T01:53:59;11.23;;;5.63;;
58468;SDS011;44257;44.804;10.220;2022-12-10T01:56:26;10.00;;;4.57;;
58468;SDS011;44257;44.804;10.220;2022-12-10T01:58:53;12.57;;;5.90;;
58468;SDS011;44257;44.804;10.220;2022-12-10T02:10:02;8.18;;;4.93;;
58468;SDS011;44257;44.804;10.220;2022-12-10T02:15:19;9.63;;;3.90;;
58468;SDS011;44257;44.804;10.220;2022-12-10T02:17:53;9.13;;;4.55;;
58468;SDS011;44257;44.804;10.220;2022-12-10T02:20:29;6.53;;;2.92;;
58468;SDS011;44257;44.804;10.220;2022-12-10T02:23:01;10.48;;;4.38;;
58468;SDS011;44257;44.804;10.220;2022-12-10T02:25:34;7.13;;;4.28;;
58468;SDS011;44257;44.804;10.220;2022-12-10T02:28:44;8.15;;;4.40;;
58468;SDS011;44257;44.804;10.220;2022-12-10T02:31:21;8.13;;;3.45;;
58468;SDS011;44257;44.804;10.220;2022-12-10T02:33:53;12.70;;;3.67;;
58468;SDS011;44257;44.804;10.220;2022-12-10T02:36:21;7.40;;;4.63;;
58468;SDS011;44257;44.804;10.220;2022-12-10T02:38:51;7.00;;;4.00;;
58468;SDS011;44257;44.804;10.220;2022-12-10T02:41:31;9.35;;;3.95;;
58468;SDS011;44257;44.804;10.220;2022-12-10T02:44:05;7.40;;;3.75;;
58468;SDS011;44257;44.804;10.220;2022-12-10T02:46:36;9.27;;;4.68;;
58468;SDS011;44257;44.804;10.220;2022-12-10T02:49:05;10.70;;;4.53;;
58468;SDS011;44257;44.804;10.220;2022-12-10T02:51:34;6.80;;;3.20;;
58468;SDS011;44257;44.804;10.220;2022-12-10T02:54:01;5.95;;;3.50;;
58468;SDS011;44257;44.804;10.220;2022-12-10T02:56:45;10.00;;;5.55;;
58468;SDS011;44257;44.804;10.220;2022-12-10T02:59:20;10.23;;;4.15;;
58468;SDS011;44257;44.804;10.220;2022-12-10T03:07:27;8.23;;;3.35;;
58468;SDS011;44257;44.804;10.220;2022-12-10T03:10:11;6.95;;;3.88;;
58468;SDS011;44257;44.804;10.220;2022-12-10T03:12:50;6.15;;;3.88;;
58468;SDS011;44257;44.804;10.220;2022-12-10T03:15:23;8.02;;;3.65;;
58468;SDS011;44257;44.804;10.220;2022-12-10T03:17:51;7.47;;;3.70;;
58468;SDS011;44257;44.804;10.220;2022-12-10T03:20:20;7.18;;;3.10;;
58468;SDS011;44257;44.804;10.220;2022-12-10T03:22:48;5.10;;;3.47;;
58468;SDS011;44257;44.804;10.220;2022-12-10T03:25:16;7.90;;;4.63;;
58468;SDS011;44257;44.804;10.220;2022-12-10T03:27:45;8.85;;;4.93;;
58468;SDS011;44257;44.804;10.220;2022-12-10T03:30:15;6.50;;;3.40;;
58468;SDS011;44257;44.804;10.220;2022-12-10T03:32:41;9.68;;;4.30;;
58468;SDS011;44257;44.804;10.220;2022-12-10T03:35:08;6.18;;;3.33;;
58468;SDS011;44257;44.804;10.220;2022-12-10T03:37:35;7.60;;;4.30;;
58468;SDS011;44257;44.804;10.220;2022-12-10T03:40:02;7.70;;;4.03;;
58468;SDS011;44257;44.804;10.220;2022-12-10T03:42:29;7.53;;;2.70;;
58468;SDS011;44257;44.804;10.220;2022-12-10T03:44:56;7.22;;;3.38;;
58468;SDS011;44257;44.804;10.220;2022-12-10T03:47:22;7.78;;;4.13;;
58468;SDS011;44257;44.804;10.220;2022-12-10T03:49:49;5.70;;;3.40;;
58468;SDS011;44257;44.804;10.220;2022-12-10T03:52:14;9.30;;;4.18;;
58468;SDS011;44257;44.804;10.220;2022-12-10T03:54:40;6.05;;;2.97;;
58468;SDS011;44257;44.804;10.220;2022-12-10T03:57:06;3.88;;;2.83;;
58468;SDS011;44257;44.804;10.220;2022-12-10T03:59:32;7.95;;;3.03;;
58468;SDS011;44257;44.804;10.220;2022-12-10T04:01:58;7.38;;;2.83;;
58468;SDS011;44257;44.804;10.220;2022-12-10T04:04:25;6.40;;;2.95;;
58468;SDS011;44257;44.804;10.220;2022-12-10T04:06:51;6.35;;;3.28;;
58468;SDS011;44257;44.804;10.220;2022-12-10T04:09:17;6.50;;;3.60;;
58468;SDS011;44257;44.804;10.220;2022-12-10T04:11:43;4.78;;;2.92;;
58468;SDS011;44257;44.804;10.220;2022-12-10T04:14:10;8.10;;;3.65;;
58468;SDS011;44257;44.804;10.220;2022-12-10T04:16:55;11.38;;;5.03;;
58468;SDS011;44257;44.804;10.220;2022-12-10T04:19:21;5.05;;;3.15;;
58468;SDS011;44257;44.804;10.220;2022-12-10T04:21:47;5.68;;;4.05;;
58468;SDS011;44257;44.804;10.220;2022-12-10T04:24:33;8.52;;;4.40;;
58468;SDS011;44257;44.804;10.220;2022-12-10T04:27:26;8.63;;;3.67;;
58468;SDS011;44257;44.804;10.220;2022-12-10T04:29:55;7.70;;;3.53;;
58468;SDS011;44257;44.804;10.220;2022-12-10T04:32:22;6.90;;;4.03;;
58468;SDS011;44257;44.804;10.220;2022-12-10T04:34:49;8.23;;;3.90;;
58468;SDS011;44257;44.804;10.220;2022-12-10T04:37:15;8.13;;;3.90;;
58468;SDS011;44257;44.804;10.220;2022-12-10T04:39:42;7.28;;;4.30;;
58468;SDS011;44257;44.804;10.220;2022-12-10T04:42:08;7.95;;;4.15;;
58468;SDS011;44257;44.804;10.220;2022-12-10T04:44:34;9.98;;;4.10;;
58468;SDS011;44257;44.804;10.220;2022-12-10T04:47:01;8.52;;;4.35;;
58468;SDS011;44257;44.804;10.220;2022-12-10T04:49:28;6.22;;;3.05;;
58468;SDS011;44257;44.804;10.220;2022-12-10T04:51:54;7.93;;;4.20;;
58468;SDS011;44257;44.804;10.220;2022-12-10T04:54:20;5.55;;;3.30;;
58468;SDS011;44257;44.804;10.220;2022-12-10T04:56:46;7.72;;;3.35;;
58468;SDS011;44257;44.804;10.220;2022-12-10T04:59:13;4.97;;;2.75;;
58468;SDS011;44257;44.804;10.220;2022-12-10T05:01:39;5.40;;;2.65;;
58468;SDS011;44257;44.804;10.220;2022-12-10T05:04:06;8.68;;;3.92;;
58468;SDS011;44257;44.804;10.220;2022-12-10T05:06:33;6.78;;;2.65;;
58468;SDS011;44257;44.804;10.220;2022-12-10T05:09:00;5.90;;;3.53;;
58468;SDS011;44257;44.804;10.220;2022-12-10T05:11:27;5.88;;;3.75;;
58468;SDS011;44257;44.804;10.220;2022-12-10T05:13:54;8.25;;;3.83;;
58468;SDS011;44257;44.804;10.220;2022-12-10T05:16:22;9.77;;;3.95;;
58468;SDS011;44257;44.804;10.220;2022-12-10T05:18:49;9.60;;;4.55;;
58468;SDS011;44257;44.804;10.220;2022-12-10T05:21:16;9.55;;;3.50;;
58468;SDS011;44257;44.804;10.220;2022-12-10T05:23:44;10.90;;;4.60;;
58468;SDS011;44257;44.804;10.220;2022-12-10T05:26:14;8.80;;;3.70;;
58468;SDS011;44257;44.804;10.220;2022-12-10T05:28:45;6.47;;;3.00;;
58468;SDS011;44257;44.804;10.220;2022-12-10T05:33:43;7.70;;;3.17;;
58468;SDS011;44257;44.804;10.220;2022-12-10T05:36:09;6.70;;;3.50;;
58468;SDS011;44257;44.804;10.220;2022-12-10T05:38:38;5.72;;;3.50;;
58468;SDS011;44257;44.804;10.220;2022-12-10T05:41:06;6.50;;;3.30;;
58468;SDS011;44257;44.804;10.220;2022-12-10T05:43:34;7.97;;;3.60;;
58468;SDS011;44257;44.804;10.220;2022-12-10T05:46:03;8.38;;;4.20;;
58468;SDS011;44257;44.804;10.220;2022-12-10T05:48:35;7.45;;;3.90;;
58468;SDS011;44257;44.804;10.220;2022-12-10T05:51:04;6.53;;;3.63;;
58468;SDS011;44257;44.804;10.220;2022-12-10T05:53:32;9.85;;;3.65;;
58468;SDS011;44257;44.804;10.220;2022-12-10T05:56:03;10.93;;;4.40;;
58468;SDS011;44257;44.804;10.220;2022-12-10T05:58:32;7.38;;;3.33;;
58468;SDS011;44257;44.804;10.220;2022-12-10T06:00:59;6.78;;;3.83;;
58468;SDS011;44257;44.804;10.220;2022-12-10T06:03:31;10.13;;;3.95;;
58468;SDS011;44257;44.804;10.220;2022-12-10T06:05:57;8.77;;;4.22;;
58468;SDS011;44257;44.804;10.220;2022-12-10T06:08:23;10.20;;;3.97;;
58468;SDS011;44257;44.804;10.220;2022-12-10T06:10:49;7.85;;;4.72;;
58468;SDS011;44257;44.804;10.220;2022-12-10T06:13:14;8.52;;;4.53;;
58468;SDS011;44257;44.804;10.220;2022-12-10T06:15:40;9.82;;;4.70;;
58468;SDS011;44257;44.804;10.220;2022-12-10T06:18:07;8.95;;;5.32;;
58468;SDS011;44257;44.804;10.220;2022-12-10T06:20:33;7.95;;;4.45;;
58468;SDS011;44257;44.804;10.220;2022-12-10T06:23:02;8.55;;;4.13;;
58468;SDS011;44257;44.804;10.220;2022-12-10T06:25:28;9.73;;;4.97;;
58468;SDS011;44257;44.804;10.220;2022-12-10T06:27:54;7.80;;;4.70;;
58468;SDS011;44257;44.804;10.220;2022-12-10T06:30:20;11.30;;;4.93;;
58468;SDS011;44257;44.804;10.220;2022-12-10T06:32:46;11.05;;;5.32;;
58468;SDS011;44257;44.804;10.220;2022-12-10T06:35:12;12.85;;;5.97;;
58468;SDS011;44257;44.804;10.220;2022-12-10T06:37:38;14.55;;;6.15;;
58468;SDS011;44257;44.804;10.220;2022-12-10T06:40:04;15.30;;;6.20;;
58468;SDS011;44257;44.804;10.220;2022-12-10T06:42:30;10.57;;;5.13;;
58468;SDS011;44257;44.804;10.220;2022-12-10T06:44:56;10.00;;;5.10;;
58468;SDS011;44257;44.804;10.220;2022-12-10T06:47:22;11.88;;;5.57;;
58468;SDS011;44257;44.804;10.220;2022-12-10T06:49:48;10.95;;;5.82;;
58468;SDS011;44257;44.804;10.220;2022-12-10T06:52:14;11.35;;;6.47;;
58468;SDS011;44257;44.804;10.220;2022-12-10T06:54:40;11.15;;;4.93;;
58468;SDS011;44257;44.804;10.220;2022-12-10T06:57:07;13.02;;;5.63;;
58468;SDS011;44257;44.804;10.220;2022-12-10T06:59:33;13.15;;;7.05;;
58468;SDS011;44257;44.804;10.220;2022-12-10T07:01:58;14.27;;;6.32;;
58468;SDS011;44257;44.804;10.220;2022-12-10T07:04:24;14.85;;;7.75;;
58468;SDS011;44257;44.804;10.220;2022-12-10T07:06:50;12.45;;;6.20;;
58468;SDS011;44257;44.804;10.220;2022-12-10T07:09:17;17.27;;;6.85;;
58468;SDS011;44257;44.804;10.220;2022-12-10T07:11:43;16.80;;;8.02;;
58468;SDS011;44257;44.804;10.220;2022-12-10T07:14:18;15.10;;;7.03;;
58468;SDS011;44257;44.804;10.220;2022-12-10T07:16:44;15.98;;;7.40;;
58468;SDS011;44257;44.804;10.220;2022-12-10T07:19:11;16.60;;;6.80;;
58468;SDS011;44257;44.804;10.220;2022-12-10T07:21:39;20.10;;;7.95;;
58468;SDS011;44257;44.804;10.220;2022-12-10T07:24:07;24.38;;;7.95;;
58468;SDS011;44257;44.804;10.220;2022-12-10T07:29:05;11.63;;;5.93;;
58468;SDS011;44257;44.804;10.220;2022-12-10T07:31:34;18.95;;;6.90;;
58468;SDS011;44257;44.804;10.220;2022-12-10T07:34:01;12.82;;;8.68;;
58468;SDS011;44257;44.804;10.220;2022-12-10T07:36:27;18.13;;;7.22;;
58468;SDS011;44257;44.804;10.220;2022-12-10T07:38:53;13.35;;;7.40;;
58468;SDS011;44257;44.804;10.220;2022-12-10T07:41:20;13.68;;;6.68;;
58468;SDS011;44257;44.804;10.220;2022-12-10T07:43:47;18.77;;;6.93;;
58468;SDS011;44257;44.804;10.220;2022-12-10T07:46:15;24.48;;;9.73;;
58468;SDS011;44257;44.804;10.220;2022-12-10T07:48:46;14.00;;;7.75;;
58468;SDS011;44257;44.804;10.220;2022-12-10T07:51:13;16.48;;;9.05;;
58468;SDS011;44257;44.804;10.220;2022-12-10T07:53:41;19.52;;;7.63;;
58468;SDS011;44257;44.804;10.220;2022-12-10T07:56:07;16.10;;;7.70;;
58468;SDS011;44257;44.804;10.220;2022-12-10T07:58:33;17.48;;;9.25;;
58468;SDS011;44257;44.804;10.220;2022-12-10T08:00:59;19.35;;;8.25;;
58468;SDS011;44257;44.804;10.220;2022-12-10T08:03:31;13.95;;;7.03;;
58468;SDS011;44257;44.804;10.220;2022-12-10T08:06:06;15.45;;;7.25;;
58468;SDS011;44257;44.804;10.220;2022-12-10T08:08:39;15.40;;;7.68;;
58468;SDS011;44257;44.804;10.220;2022-12-10T08:11:07;16.58;;;7.85;;
58468;SDS011;44257;44.804;10.220;2022-12-10T08:13:34;19.70;;;7.95;;
58468;SDS011;44257;44.804;10.220;2022-12-10T08:16:01;15.25;;;8.18;;
58468;SDS011;44257;44.804;10.220;2022-12-10T08:18:29;11.70;;;7.00;;
58468;SDS011;44257;44.804;10.220;2022-12-10T08:20:56;17.90;;;7.60;;
58468;SDS011;44257;44.804;10.220;2022-12-10T08:23:23;16.50;;;7.80;;
58468;SDS011;44257;44.804;10.220;2022-12-10T08:25:49;16.88;;;8.50;;
58468;SDS011;44257;44.804;10.220;2022-12-10T08:28:15;22.90;;;7.72;;
58468;SDS011;44257;44.804;10.220;2022-12-10T08:30:48;14.45;;;8.23;;
58468;SDS011;44257;44.804;10.220;2022-12-10T08:33:15;16.33;;;9.00;;
58468;SDS011;44257;44.804;10.220;2022-12-10T08:35:41;12.90;;;6.75;;
58468;SDS011;44257;44.804;10.220;2022-12-10T08:38:07;17.65;;;8.65;;
58468;SDS011;44257;44.804;10.220;2022-12-10T08:40:32;20.65;;;10.10;;
58468;SDS011;44257;44.804;10.220;2022-12-10T08:42:59;14.32;;;7.05;;
58468;SDS011;44257;44.804;10.220;2022-12-10T08:45:25;17.27;;;7.65;;
58468;SDS011;44257;44.804;10.220;2022-12-10T08:47:51;19.35;;;8.27;;
58468;SDS011;44257;44.804;10.220;2022-12-10T08:50:17;17.10;;;8.07;;
58468;SDS011;44257;44.804;10.220;2022-12-10T08:52:44;19.55;;;8.45;;
58468;SDS011;44257;44.804;10.220;2022-12-10T08:55:09;22.48;;;9.07;;
58468;SDS011;44257;44.804;10.220;2022-12-10T08:57:35;20.65;;;9.45;;
58468;SDS011;44257;44.804;10.220;2022-12-10T09:00:02;18.98;;;9.57;;
58468;SDS011;44257;44.804;10.220;2022-12-10T09:02:28;16.63;;;8.25;;
58468;SDS011;44257;44.804;10.220;2022-12-10T09:04:54;13.43;;;6.53;;
58468;SDS011;44257;44.804;10.220;2022-12-10T09:07:20;16.50;;;7.57;;
58468;SDS011;44257;44.804;10.220;2022-12-10T09:09:46;15.50;;;9.52;;
58468;SDS011;44257;44.804;10.220;2022-12-10T09:12:12;21.60;;;8.02;;
58468;SDS011;44257;44.804;10.220;2022-12-10T09:14:38;16.23;;;8.05;;
58468;SDS011;44257;44.804;10.220;2022-12-10T09:17:05;15.48;;;8.85;;
58468;SDS011;44257;44.804;10.220;2022-12-10T09:19:31;17.77;;;9.95;;
58468;SDS011;44257;44.804;10.220;2022-12-10T09:21:57;20.13;;;9.93;;
58468;SDS011;44257;44.804;10.220;2022-12-10T09:24:23;16.13;;;11.15;;
58468;SDS011;44257;44.804;10.220;2022-12-10T09:26:49;13.85;;;7.63;;
58468;SDS011;44257;44.804;10.220;2022-12-10T09:29:15;17.15;;;8.68;;
58468;SDS011;44257;44.804;10.220;2022-12-10T09:31:41;21.08;;;8.68;;
58468;SDS011;44257;44.804;10.220;2022-12-10T09:34:07;19.75;;;8.75;;
58468;SDS011;44257;44.804;10.220;2022-12-10T09:36:33;17.60;;;7.78;;
58468;SDS011;44257;44.804;10.220;2022-12-10T09:39:00;16.60;;;7.68;;
58468;SDS011;44257;44.804;10.220;2022-12-10T09:41:48;19.33;;;8.48;;
58468;SDS011;44257;44.804;10.220;2022-12-10T09:44:22;16.48;;;7.45;;
58468;SDS011;44257;44.804;10.220;2022-12-10T09:47:12;19.25;;;8.45;;
58468;SDS011;44257;44.804;10.220;2022-12-10T09:49:48;17.13;;;10.70;;
58468;SDS011;44257;44.804;10.220;2022-12-10T09:52:39;13.98;;;7.68;;
58468;SDS011;44257;44.804;10.220;2022-12-10T09:55:11;16.17;;;7.35;;
58468;SDS011;44257;44.804;10.220;2022-12-10T09:57:48;20.42;;;8.43;;
58468;SDS011;44257;44.804;10.220;2022-12-10T10:02:41;16.75;;;7.90;;
58468;SDS011;44257;44.804;10.220;2022-12-10T10:07:34;17.05;;;7.97;;
58468;SDS011;44257;44.804;10.220;2022-12-10T10:10:05;18.80;;;8.63;;
58468;SDS011;44257;44.804;10.220;2022-12-10T10:12:33;15.60;;;8.23;;
58468;SDS011;44257;44.804;10.220;2022-12-10T10:15:04;15.55;;;6.30;;
58468;SDS011;44257;44.804;10.220;2022-12-10T10:17:39;17.55;;;7.35;;
58468;SDS011;44257;44.804;10.220;2022-12-10T10:20:11;18.70;;;9.33;;
58468;SDS011;44257;44.804;10.220;2022-12-10T10:22:38;17.80;;;8.23;;
58468;SDS011;44257;44.804;10.220;2022-12-10T10:25:04;14.70;;;8.18;;
58468;SDS011;44257;44.804;10.220;2022-12-10T10:27:38;16.40;;;7.60;;
58468;SDS011;44257;44.804;10.220;2022-12-10T10:30:05;14.38;;;8.23;;
58468;SDS011;44257;44.804;10.220;2022-12-10T10:35:01;19.85;;;8.10;;
58468;SDS011;44257;44.804;10.220;2022-12-10T10:37:49;14.70;;;6.75;;
58468;SDS011;44257;44.804;10.220;2022-12-10T10:40:25;16.35;;;8.38;;
58468;SDS011;44257;44.804;10.220;2022-12-10T10:42:58;15.85;;;7.57;;
58468;SDS011;44257;44.804;10.220;2022-12-10T10:45:36;12.75;;;6.47;;
58468;SDS011;44257;44.804;10.220;2022-12-10T10:48:11;16.52;;;7.03;;
58468;SDS011;44257;44.804;10.220;2022-12-10T10:50:55;22.05;;;8.05;;
58468;SDS011;44257;44.804;10.220;2022-12-10T10:53:53;17.90;;;7.68;;
58468;SDS011;44257;44.804;10.220;2022-12-10T10:56:20;15.23;;;8.80;;
58468;SDS011;44257;44.804;10.220;2022-12-10T10:59:00;16.20;;;7.95;;
58468;SDS011;44257;44.804;10.220;2022-12-10T11:04:13;14.57;;;7.57;;
58468;SDS011;44257;44.804;10.220;2022-12-10T11:06:41;17.35;;;7.88;;
58468;SDS011;44257;44.804;10.220;2022-12-10T11:09:13;17.73;;;9.52;;
58468;SDS011;44257;44.804;10.220;2022-12-10T11:11:45;14.38;;;7.43;;
58468;SDS011;44257;44.804;10.220;2022-12-10T11:15:01;16.17;;;7.55;;
58468;SDS011;44257;44.804;10.220;2022-12-10T11:19:34;12.20;;;7.05;;
58468;SDS011;44257;44.804;10.220;2022-12-10T11:22:23;19.38;;;8.52;;
58468;SDS011;44257;44.804;10.220;2022-12-10T11:24:51;13.68;;;6.82;;
58468;SDS011;44257;44.804;10.220;2022-12-10T11:27:28;17.55;;;8.45;;
58468;SDS011;44257;44.804;10.220;2022-12-10T11:30:17;20.98;;;7.47;;
58468;SDS011;44257;44.804;10.220;2022-12-10T11:38:28;14.80;;;7.97;;
58468;SDS011;44257;44.804;10.220;2022-12-10T11:51:44;17.75;;;6.53;;
58468;SDS011;44257;44.804;10.220;2022-12-10T11:54:25;17.23;;;8.23;;
58468;SDS011;44257;44.804;10.220;2022-12-10T11:57:22;15.77;;;6.72;;
58468;SDS011;44257;44.804;10.220;2022-12-10T12:05:24;14.02;;;8.65;;
58468;SDS011;44257;44.804;10.220;2022-12-10T12:13:38;16.70;;;7.47;;
58468;SDS011;44257;44.804;10.220;2022-12-10T12:16:15;18.33;;;7.50;;
58468;SDS011;44257;44.804;10.220;2022-12-10T12:18:47;20.85;;;8.05;;
58468;SDS011;44257;44.804;10.220;2022-12-10T12:21:17;21.90;;;8.77;;
58468;SDS011;44257;44.804;10.220;2022-12-10T12:23:54;17.25;;;7.80;;
58468;SDS011;44257;44.804;10.220;2022-12-10T12:26:29;15.98;;;7.53;;
58468;SDS011;44257;44.804;10.220;2022-12-10T12:31:38;13.23;;;7.00;;
58468;SDS011;44257;44.804;10.220;2022-12-10T12:36:43;16.30;;;8.32;;
58468;SDS011;44257;44.804;10.220;2022-12-10T12:47:47;16.98;;;8.40;;
58468;SDS011;44257;44.804;10.220;2022-12-10T12:53:20;30.00;;;8.32;;
58468;SDS011;44257;44.804;10.220;2022-12-10T13:01:00;16.13;;;6.95;;
58468;SDS011;44257;44.804;10.220;2022-12-10T13:03:39;13.48;;;7.53;;
58468;SDS011;44257;44.804;10.220;2022-12-10T13:08:52;13.73;;;7.20;;
58468;SDS011;44257;44.804;10.220;2022-12-10T13:11:24;10.68;;;6.18;;
58468;SDS011;44257;44.804;10.220;2022-12-10T13:29:28;19.88;;;8.70;;
58468;SDS011;44257;44.804;10.220;2022-12-10T13:34:45;13.13;;;8.45;;
58468;SDS011;44257;44.804;10.220;2022-12-10T13:37:33;14.23;;;6.28;;
58468;SDS011;44257;44.804;10.220;2022-12-10T13:42:35;14.38;;;7.40;;
58468;SDS011;44257;44.804;10.220;2022-12-10T13:45:25;18.95;;;8.65;;
58468;SDS011;44257;44.804;10.220;2022-12-10T13:51:09;16.63;;;8.70;;
58468;SDS011;44257;44.804;10.220;2022-12-10T14:02:19;14.45;;;7.68;;
58468;SDS011;44257;44.804;10.220;2022-12-10T14:07:26;15.23;;;8.75;;
58468;SDS011;44257;44.804;10.220;2022-12-10T14:09:53;14.90;;;8.00;;
58468;SDS011;44257;44.804;10.220;2022-12-10T14:15:00;15.88;;;9.57;;
58468;SDS011;44257;44.804;10.220;2022-12-10T14:17:39;16.00;;;6.97;;
58468;SDS011;44257;44.804;10.220;2022-12-10T14:20:08;16.77;;;8.32;;
58468;SDS011;44257;44.804;10.220;2022-12-10T14:22:49;13.77;;;6.05;;
58468;SDS011;44257;44.804;10.220;2022-12-10T14:25:17;15.95;;;8.57;;
58468;SDS011;44257;44.804;10.220;2022-12-10T14:27:50;15.30;;;7.78;;
58468;SDS011;44257;44.804;10.220;2022-12-10T14:32:43;14.30;;;7.07;;
58468;SDS011;44257;44.804;10.220;2022-12-10T14:35:14;17.38;;;8.13;;
58468;SDS011;44257;44.804;10.220;2022-12-10T14:40:12;12.40;;;7.13;;
58468;SDS011;44257;44.804;10.220;2022-12-10T14:42:46;13.98;;;6.90;;
58468;SDS011;44257;44.804;10.220;2022-12-10T14:45:13;12.63;;;6.18;;
58468;SDS011;44257;44.804;10.220;2022-12-10T14:47:41;15.05;;;7.93;;
58468;SDS011;44257;44.804;10.220;2022-12-10T14:50:13;14.32;;;8.73;;
58468;SDS011;44257;44.804;10.220;2022-12-10T14:52:42;20.00;;;9.00;;
58468;SDS011;44257;44.804;10.220;2022-12-10T14:55:13;12.63;;;6.65;;
58468;SDS011;44257;44.804;10.220;2022-12-10T14:57:42;14.63;;;7.53;;
58468;SDS011;44257;44.804;10.220;2022-12-10T15:00:20;18.25;;;9.20;;
58468;SDS011;44257;44.804;10.220;2022-12-10T15:02:48;17.13;;;10.40;;
58468;SDS011;44257;44.804;10.220;2022-12-10T15:05:20;14.60;;;7.25;;
58468;SDS011;44257;44.804;10.220;2022-12-10T15:07:56;16.42;;;7.05;;
58468;SDS011;44257;44.804;10.220;2022-12-10T15:10:44;12.32;;;6.97;;
58468;SDS011;44257;44.804;10.220;2022-12-10T15:13:18;14.48;;;7.75;;
58468;SDS011;44257;44.804;10.220;2022-12-10T15:15:48;18.13;;;8.25;;
58468;SDS011;44257;44.804;10.220;2022-12-10T15:18:16;11.93;;;7.25;;
58468;SDS011;44257;44.804;10.220;2022-12-10T15:20:47;12.57;;;6.57;;
58468;SDS011;44257;44.804;10.220;2022-12-10T15:26:00;16.20;;;7.18;;
58468;SDS011;44257;44.804;10.220;2022-12-10T15:28:28;16.60;;;7.68;;
58468;SDS011;44257;44.804;10.220;2022-12-10T15:34:01;13.98;;;8.23;;
58468;SDS011;44257;44.804;10.220;2022-12-10T15:39:04;14.25;;;8.23;;
58468;SDS011;44257;44.804;10.220;2022-12-10T15:44:04;12.23;;;6.82;;
58468;SDS011;44257;44.804;10.220;2022-12-10T15:46:31;20.55;;;9.27;;
58468;SDS011;44257;44.804;10.220;2022-12-10T15:48:57;14.13;;;7.22;;
58468;SDS011;44257;44.804;10.220;2022-12-10T15:51:23;13.05;;;5.28;;
58468;SDS011;44257;44.804;10.220;2022-12-10T15:53:50;16.52;;;8.05;;
58468;SDS011;44257;44.804;10.220;2022-12-10T15:56:17;16.13;;;7.40;;
58468;SDS011;44257;44.804;10.220;2022-12-10T15:58:43;20.40;;;7.80;;
58468;SDS011;44257;44.804;10.220;2022-12-10T16:01:11;15.43;;;7.20;;
58468;SDS011;44257;44.804;10.220;2022-12-10T16:03:39;18.05;;;8.52;;
58468;SDS011;44257;44.804;10.220;2022-12-10T16:06:06;14.63;;;8.40;;
58468;SDS011;44257;44.804;10.220;2022-12-10T16:08:32;12.90;;;6.28;;
58468;SDS011;44257;44.804;10.220;2022-12-10T16:11:01;16.67;;;9.68;;
58468;SDS011;44257;44.804;10.220;2022-12-10T16:13:37;15.85;;;7.05;;
58468;SDS011;44257;44.804;10.220;2022-12-10T16:16:09;16.98;;;6.93;;
58468;SDS011;44257;44.804;10.220;2022-12-10T16:18:36;17.35;;;8.10;;
58468;SDS011;44257;44.804;10.220;2022-12-10T16:21:03;14.07;;;7.63;;
58468;SDS011;44257;44.804;10.220;2022-12-10T16:23:30;19.38;;;8.77;;
58468;SDS011;44257;44.804;10.220;2022-12-10T16:25:56;12.68;;;7.25;;
58468;SDS011;44257;44.804;10.220;2022-12-10T16:28:23;16.00;;;7.80;;
58468;SDS011;44257;44.804;10.220;2022-12-10T16:30:50;14.30;;;6.40;;
58468;SDS011;44257;44.804;10.220;2022-12-10T16:33:22;20.02;;;9.73;;
58468;SDS011;44257;44.804;10.220;2022-12-10T16:35:50;12.85;;;7.68;;
58468;SDS011;44257;44.804;10.220;2022-12-10T16:38:17;15.57;;;6.97;;
58468;SDS011;44257;44.804;10.220;2022-12-10T16:40:43;21.30;;;8.13;;
58468;SDS011;44257;44.804;10.220;2022-12-10T16:43:17;15.32;;;8.45;;
58468;SDS011;44257;44.804;10.220;2022-12-10T16:45:45;14.45;;;7.40;;
58468;SDS011;44257;44.804;10.220;2022-12-10T16:48:11;17.10;;;7.90;;
58468;SDS011;44257;44.804;10.220;2022-12-10T16:50:37;15.82;;;6.80;;
58468;SDS011;44257;44.804;10.220;2022-12-10T16:55:51;17.50;;;7.38;;
58468;SDS011;44257;44.804;10.220;2022-12-10T16:58:17;14.15;;;8.27;;
58468;SDS011;44257;44.804;10.220;2022-12-10T17:00:44;14.30;;;6.43;;
58468;SDS011;44257;44.804;10.220;2022-12-10T17:03:14;15.25;;;7.45;;
58468;SDS011;44257;44.804;10.220;2022-12-10T17:05:48;15.93;;;7.55;;